Terminal Aerodrome Forecast
Issued by NWS

Home | Current Version | Previous Version | Text Only | Print | Product List | Glossary On
Versions: 1 2 3 4 5 6 7 8 9 10 11 12 13 14
065
FTUS43 KLSX 262322
TAFUIN
TAF
KUIN 262322Z 2700/2724 15008KT P6SM OVC150
     FM270500 18007KT 6SM -SHRA VCTS BKN060CB
     FM271000 17008KT P6SM BKN060
     FM271700 16010KT P6SM VCSH BKN040=

USA.gov is the U.S. government's official web portal to all federal, state and local government web resources and services.